Time;durP1;ratioP1;P1;durP2;ratioP2;P2;SDS_P1;SDS_P2;PMS_P1;PMS_P2;Temp;Humidity;BMP_temperature;BMP_pressure;BME280_temperature;BME280_humidity;BME280_pressure;Samples;Min_cycle;Max_cycle;Signal;HPM_P1;HPM_P2
2023/04/15 06:53:29;;;;;;;4.10;2.45;;;12.70;97.10;;;;;;5106260;27;20315;-76
2023/04/15 06:55:54;;;;;;;38.45;4.55;;;16.60;88.60;;;;;;5099024;28;20022;-79
2023/04/15 06:58:21;;;;;;;19.63;3.20;;;18.20;81.10;;;;;;5053010;27;272599;-78
2023/04/15 07:00:46;;;;;;;10.88;3.05;;;18.90;77.90;;;;;;5025398;28;20133;-77
2023/04/15 07:03:12;;;;;;;21.10;4.53;;;19.30;75.90;;;;;;5019742;28;20511;-78
2023/04/15 07:05:38;;;;;;;17.88;6.40;;;19.50;74.90;;;;;;5027744;28;20032;-76
2023/04/15 07:08:04;;;;;;;32.33;7.72;;;19.60;75.30;;;;;;5044507;28;20060;-78
2023/04/15 07:10:30;;;;;;;30.88;8.38;;;19.70;75.70;;;;;;5045406;28;20057;-79
2023/04/15 07:12:56;;;;;;;30.08;7.70;;;19.80;74.90;;;;;;5020487;28;20054;-79
2023/04/15 07:15:22;;;;;;;39.85;10.75;;;19.80;74.60;;;;;;5028262;28;20096;-79
2023/04/15 07:17:51;;;;;;;35.42;10.63;;;19.90;75.00;;;;;;5041349;28;20078;-80
2023/04/15 07:20:17;;;;;;;31.17;10.13;;;20.00;75.40;;;;;;5024075;28;20028;-78
2023/04/15 07:22:43;;;;;;;40.38;10.00;;;20.10;75.00;;;;;;5021960;28;20025;-77
2023/04/15 07:25:08;;;;;;;38.22;9.90;;;20.10;75.20;;;;;;5040937;28;20017;-78
2023/04/15 07:27:34;;;;;;;30.25;9.55;;;20.30;75.20;;;;;;5025328;28;20029;-78
2023/04/15 07:30:00;;;;;;;30.05;9.15;;;20.30;75.40;;;;;;5037602;28;20105;-78
2023/04/15 07:32:26;;;;;;;37.13;9.50;;;20.40;75.50;;;;;;5021139;28;20091;-77
2023/04/15 07:34:52;;;;;;;38.55;8.20;;;20.40;75.90;;;;;;5036145;28;20022;-77
2023/04/15 07:37:18;;;;;;;22.92;8.20;;;20.40;75.80;;;;;;5021935;28;20499;-78
2023/04/15 07:39:44;;;;;;;23.92;8.25;;;20.40;75.20;;;;;;5026517;28;20038;-77
2023/04/15 07:42:10;;;;;;;40.17;8.13;;;20.40;74.90;;;;;;5026651;28;20022;-80
2023/04/15 07:44:36;;;;;;;38.30;8.82;;;20.40;74.70;;;;;;5025213;28;20033;-80
2023/04/15 07:47:03;;;;;;;40.13;7.22;;;20.50;74.80;;;;;;5025872;28;20025;-79
2023/04/15 07:49:28;;;;;;;40.00;9.00;;;20.50;74.70;;;;;;5031187;28;20028;-80
2023/04/15 07:51:55;;;;;;;37.10;8.50;;;20.50;74.50;;;;;;5031581;28;20121;-78
2023/04/15 07:54:20;;;;;;;30.50;7.45;;;20.60;74.60;;;;;;5038737;28;20026;-77
2023/04/15 07:56:46;;;;;;;35.58;7.18;;;20.60;75.30;;;;;;5017583;28;20647;-77
2023/04/15 07:59:11;;;;;;;37.80;8.35;;;20.60;74.60;;;;;;5024908;28;20025;-76
2023/04/15 08:01:37;;;;;;;41.92;8.95;;;20.60;74.60;;;;;;5028366;28;20021;-76
2023/04/15 08:04:03;;;;;;;31.73;7.18;;;20.60;74.60;;;;;;5008749;28;20157;-78
2023/04/15 08:06:29;;;;;;;22.52;7.43;;;20.60;74.70;;;;;;5012516;28;20511;-80
2023/04/15 08:08:55;;;;;;;20.40;6.95;;;20.60;74.60;;;;;;5021926;28;20484;-79
2023/04/15 08:11:20;;;;;;;27.13;6.13;;;20.70;75.20;;;;;;5011853;28;20441;-82
2023/04/15 08:13:46;;;;;;;48.08;7.10;;;20.70;74.10;;;;;;5012594;28;20014;-77
2023/04/15 08:16:23;;;;;;;31.58;6.18;;;20.70;74.10;;;;;;5011109;28;20490;-78
2023/04/15 08:18:50;;;;;;;26.45;6.53;;;20.70;73.70;;;;;;5010629;28;20018;-78
2023/04/15 08:21:17;;;;;;;29.05;7.35;;;20.70;73.60;;;;;;5011108;28;20482;-75
2023/04/15 08:23:44;;;;;;;32.60;6.38;;;20.80;73.60;;;;;;5011210;28;20112;-79
2023/04/15 08:26:10;;;;;;;32.85;6.93;;;20.70;73.50;;;;;;5012013;28;20036;-73
2023/04/15 08:28:39;;;;;;;56.42;6.15;;;20.70;73.70;;;;;;5007113;28;20030;-75
2023/04/15 08:31:05;;;;;;;31.98;6.40;;;20.70;75.00;;;;;;5006504;28;20025;-74
2023/04/15 08:33:31;;;;;;;16.75;4.95;;;20.70;73.70;;;;;;5003113;28;20391;-74
2023/04/15 08:35:56;;;;;;;22.33;5.30;;;20.60;73.10;;;;;;5006517;28;20064;-73
2023/04/15 08:38:22;;;;;;;26.02;4.68;;;20.60;73.20;;;;;;5006524;28;20076;-75
2023/04/15 08:40:48;;;;;;;23.95;4.57;;;20.60;73.00;;;;;;5006484;28;20026;-74
2023/04/15 08:43:27;;;;;;;17.55;4.63;;;20.60;72.90;;;;;;5005083;28;20025;-73
2023/04/15 08:45:54;;;;;;;30.83;4.70;;;20.60;72.80;;;;;;5009586;28;20391;-74
2023/04/15 08:48:21;;;;;;;15.32;4.47;;;20.50;72.50;;;;;;5005907;28;20269;-74
2023/04/15 08:50:47;;;;;;;14.98;4.10;;;20.60;72.60;;;;;;5007010;28;20045;-72
2023/04/15 08:53:14;;;;;;;21.90;3.95;;;20.50;72.50;;;;;;5003472;28;20577;-73
2023/04/15 08:55:51;;;;;;;64.45;6.50;;;20.50;72.70;;;;;;5006259;28;20021;-74
2023/04/15 08:58:17;;;;;;;121.55;10.07;;;20.50;73.10;;;;;;5016435;28;20567;-78
2023/04/15 09:00:43;;;;;;;94.32;9.45;;;20.50;73.70;;;;;;5009843;28;20019;-72
2023/04/15 09:03:09;;;;;;;75.90;7.15;;;20.60;74.60;;;;;;5003707;28;20041;-71
2023/04/15 09:05:35;;;;;;;96.53;8.70;;;20.60;74.80;;;;;;5005037;28;20368;-72
2023/04/15 09:08:02;;;;;;;65.85;7.18;;;20.60;74.20;;;;;;5010472;28;20026;-73
2023/04/15 09:10:28;;;;;;;84.38;8.75;;;20.60;73.80;;;;;;5004594;28;20677;-72
2023/04/15 09:12:54;;;;;;;78.18;7.97;;;20.60;74.00;;;;;;5003685;28;20058;-71
2023/04/15 09:15:20;;;;;;;63.55;6.63;;;20.60;74.00;;;;;;5001548;28;20022;-71
2023/04/15 09:17:47;;;;;;;66.18;8.00;;;20.50;74.10;;;;;;5002535;28;20018;-71
2023/04/15 09:20:14;;;;;;;47.72;5.88;;;20.50;74.00;;;;;;5002133;28;20660;-71
2023/04/15 09:22:41;;;;;;;96.10;7.18;;;20.50;74.00;;;;;;5002122;28;20109;-71
2023/04/15 09:25:21;;;;;;;55.15;6.10;;;20.50;73.90;;;;;;5001887;28;20034;-71
2023/04/15 09:27:52;;;;;;;44.00;6.03;;;20.50;74.00;;;;;;5003518;28;20030;-71
2023/04/15 09:30:18;;;;;;;48.22;7.18;;;20.50;74.00;;;;;;5000338;28;20045;-71
2023/04/15 09:32:57;;;;;;;31.10;6.22;;;20.50;74.00;;;;;;5001243;28;20022;-71
2023/04/15 09:35:25;;;;;;;57.42;5.68;;;20.50;73.90;;;;;;4999534;28;20022;-72
2023/04/15 09:37:51;;;;;;;31.58;5.85;;;20.40;73.90;;;;;;5004940;28;20026;-72
2023/04/15 09:40:40;;;;;;;26.35;5.57;;;20.40;73.90;;;;;;4998708;28;20743;-72
2023/04/15 09:43:08;;;;;;;32.72;7.13;;;20.50;74.00;;;;;;5003008;28;20053;-71
2023/04/15 09:45:35;;;;;;;34.35;5.22;;;20.40;74.00;;;;;;5003320;28;20030;-71
2023/04/15 09:48:21;;;;;;;24.67;5.75;;;20.40;74.00;;;;;;5006618;28;20041;-71
2023/04/15 09:50:52;;;;;;;26.42;5.22;;;20.40;74.00;;;;;;5004503;28;20387;-71
2023/04/15 09:53:20;;;;;;;26.60;5.03;;;20.40;74.00;;;;;;5007708;28;20792;-72
2023/04/15 09:55:50;;;;;;;31.98;5.85;;;20.40;74.00;;;;;;5011180;28;20490;-71
2023/04/15 09:58:22;;;;;;;19.83;5.13;;;20.40;74.00;;;;;;5010209;28;20101;-72
2023/04/15 10:00:49;;;;;;;28.92;5.50;;;20.40;74.10;;;;;;5011260;28;20006;-72
2023/04/15 10:03:26;;;;;;;24.20;4.35;;;20.40;74.20;;;;;;5010441;28;20018;-71
2023/04/15 10:05:54;;;;;;;26.92;5.07;;;20.40;74.10;;;;;;5007658;28;20024;-72
2023/04/15 10:08:22;;;;;;;16.00;4.22;;;20.30;74.20;;;;;;5010082;28;20169;-71
2023/04/15 10:10:48;;;;;;;25.10;4.50;;;20.30;74.20;;;;;;5009875;28;20025;-72
2023/04/15 10:13:17;;;;;;;16.10;4.20;;;20.30;74.20;;;;;;5010479;28;20030;-72
2023/04/15 10:15:47;;;;;;;16.23;4.03;;;20.30;74.20;;;;;;5024043;28;20442;-71
2023/04/15 10:18:18;;;;;;;12.15;4.72;;;20.30;74.20;;;;;;5008457;28;20034;-72
2023/04/15 10:20:46;;;;;;;14.70;3.95;;;20.30;74.20;;;;;;5009598;28;20026;-71
2023/04/15 10:23:13;;;;;;;33.97;4.45;;;20.30;74.20;;;;;;5007723;28;20022;-72
2023/04/15 10:25:39;;;;;;;24.95;4.68;;;20.30;74.20;;;;;;5008645;28;20029;-71
2023/04/15 10:28:06;;;;;;;20.25;4.60;;;20.30;74.30;;;;;;5008864;28;20030;-73
2023/04/15 10:30:32;;;;;;;20.15;3.40;;;20.30;74.30;;;;;;5022594;28;20376;-73
2023/04/15 10:33:00;;;;;;;15.75;4.25;;;20.30;74.30;;;;;;5009444;28;20032;-73
2023/04/15 10:35:27;;;;;;;20.40;3.42;;;20.30;74.30;;;;;;5009606;28;20022;-73
2023/04/15 10:37:53;;;;;;;22.55;4.47;;;20.30;74.20;;;;;;5002197;28;20021;-72
2023/04/15 10:40:27;;;;;;;22.67;5.70;;;20.30;74.20;;;;;;5000795;28;20106;-73
2023/04/15 10:42:58;;;;;;;23.10;5.72;;;20.30;74.20;;;;;;4999658;28;20022;-73
2023/04/15 10:45:27;;;;;;;27.70;6.22;;;20.30;74.90;;;;;;5003240;28;20531;-73
2023/04/15 10:47:55;;;;;;;17.63;6.03;;;20.30;75.00;;;;;;4998448;28;20022;-72
2023/04/15 10:50:21;;;;;;;16.48;5.00;;;20.30;75.00;;;;;;5002207;28;20449;-73
2023/04/15 10:52:51;;;;;;;14.82;4.97;;;20.30;74.90;;;;;;5004133;28;20029;-73
2023/04/15 10:55:26;;;;;;;17.73;6.53;;;20.30;75.00;;;;;;5004193;28;20029;-72
2023/04/15 10:57:59;;;;;;;17.00;5.53;;;20.30;75.00;;;;;;4998919;28;20129;-72
2023/04/15 11:00:27;;;;;;;16.40;5.47;;;20.30;75.00;;;;;;5009719;28;20018;-72
2023/04/15 11:03:07;;;;;;;22.30;5.82;;;20.30;76.10;;;;;;5006937;28;20034;-73
2023/04/15 11:05:48;;;;;;;30.08;6.13;;;20.30;75.60;;;;;;5006271;28;20053;-72
2023/04/15 11:08:15;;;;;;;20.60;5.65;;;20.30;75.80;;;;;;5003922;28;20080;-72
2023/04/15 11:10:40;;;;;;;21.88;5.35;;;20.30;76.00;;;;;;5006979;28;20026;-74
2023/04/15 11:13:09;;;;;;;25.38;6.68;;;20.30;76.00;;;;;;5008544;28;20113;-74
2023/04/15 11:15:45;;;;;;;19.38;6.55;;;20.30;75.90;;;;;;5005192;28;20076;-73
2023/04/15 11:18:21;;;;;;;36.63;7.13;;;20.40;75.80;;;;;;5006642;28;20076;-73
2023/04/15 11:21:02;;;;;;;17.50;5.35;;;20.40;75.80;;;;;;5003392;28;20022;-72
2023/04/15 11:23:36;;;;;;;18.92;5.13;;;20.40;76.00;;;;;;5008083;28;20038;-72
2023/04/15 11:26:05;;;;;;;23.35;5.25;;;20.40;76.10;;;;;;5005710;28;20033;-72
2023/04/15 11:28:32;;;;;;;26.23;6.18;;;20.30;76.20;;;;;;5009811;28;20026;-72
2023/04/15 11:31:04;;;;;;;25.20;6.35;;;20.30;76.10;;;;;;5007381;28;20061;-72
2023/04/15 11:33:30;;;;;;;22.25;5.57;;;20.30;76.30;;;;;;5007015;28;20033;-73
2023/04/15 11:35:55;;;;;;;23.48;6.43;;;20.30;76.30;;;;;;5007522;28;20017;-72
2023/04/15 11:38:21;;;;;;;21.65;5.35;;;20.30;76.40;;;;;;5024680;28;20476;-73
2023/04/15 11:40:47;;;;;;;20.38;5.90;;;20.30;76.60;;;;;;5026228;28;20441;-72
2023/04/15 11:43:20;;;;;;;15.90;5.72;;;20.30;76.50;;;;;;5012573;28;20084;-72
2023/04/15 11:45:59;;;;;;;17.45;5.65;;;20.30;76.60;;;;;;5011572;28;20442;-72
2023/04/15 11:48:32;;;;;;;20.90;5.55;;;20.30;76.60;;;;;;5010887;28;20030;-72
2023/04/15 11:51:03;;;;;;;20.70;4.53;;;20.30;76.70;;;;;;5010863;28;20033;-72
2023/04/15 11:53:49;;;;;;;14.63;5.85;;;20.30;76.70;;;;;;5010105;28;20041;-72
2023/04/15 11:56:23;;;;;;;20.75;4.38;;;20.30;76.70;;;;;;5009155;28;20386;-72
2023/04/15 11:58:58;;;;;;;21.85;4.78;;;20.20;76.80;;;;;;5011356;28;20097;-72
2023/04/15 12:01:53;;;;;;;15.15;4.40;;;20.20;76.90;;;;;;5010534;28;20387;-72
2023/04/15 12:04:21;;;;;;;18.80;5.22;;;20.20;76.90;;;;;;4982710;28;20033;-72
2023/04/15 12:06:48;;;;;;;13.13;4.35;;;20.20;77.00;;;;;;5001125;28;20125;-72
2023/04/15 12:09:17;;;;;;;17.25;4.85;;;20.20;77.70;;;;;;4982762;28;20026;-72
2023/04/15 12:11:51;;;;;;;17.47;4.40;;;20.20;77.00;;;;;;4994968;28;20026;-72
2023/04/15 12:14:28;;;;;;;12.38;4.20;;;20.20;77.00;;;;;;4996639;28;20034;-72
2023/04/15 12:16:57;;;;;;;23.35;5.25;;;20.20;77.00;;;;;;4993373;28;20058;-72
2023/04/15 12:19:28;;;;;;;20.95;5.20;;;20.20;77.10;;;;;;4998803;28;20127;-72
2023/04/15 12:21:59;;;;;;;21.90;4.63;;;20.20;77.20;;;;;;4980243;28;20027;-72
2023/04/15 12:24:25;;;;;;;15.40;5.13;;;20.20;77.40;;;;;;4995066;28;20027;-73
2023/04/15 12:26:56;;;;;;;18.70;4.53;;;20.20;77.20;;;;;;4997711;28;20026;-72
2023/04/15 12:29:27;;;;;;;14.50;3.95;;;20.20;77.20;;;;;;4998457;28;20038;-72
2023/04/15 12:31:54;;;;;;;12.20;3.95;;;20.20;77.20;;;;;;4997513;28;20022;-72
2023/04/15 12:34:31;;;;;;;16.08;5.15;;;20.20;77.30;;;;;;4980250;28;20034;-72
2023/04/15 12:37:00;;;;;;;14.93;4.55;;;20.20;77.40;;;;;;5000764;28;20022;-72
2023/04/15 12:39:27;;;;;;;12.02;4.07;;;20.20;77.40;;;;;;4998451;28;20137;-72
2023/04/15 12:41:53;;;;;;;21.15;3.67;;;20.10;77.40;;;;;;5012532;28;20061;-72
2023/04/15 12:44:21;;;;;;;12.45;4.00;;;20.10;77.50;;;;;;5009346;28;20109;-72
2023/04/15 12:46:47;;;;;;;11.65;3.85;;;20.20;77.50;;;;;;5009534;28;20032;-72
2023/04/15 12:49:18;;;;;;;12.70;4.15;;;20.10;77.50;;;;;;5007482;28;20030;-72
2023/04/15 12:51:44;;;;;;;17.80;4.55;;;20.10;77.50;;;;;;5010725;28;20026;-72
2023/04/15 12:54:10;;;;;;;15.90;3.65;;;20.10;77.60;;;;;;5011083;28;20022;-72
2023/04/15 12:56:35;;;;;;;20.40;4.55;;;20.10;77.50;;;;;;5025685;28;20037;-71
2023/04/15 12:59:01;;;;;;;14.85;4.10;;;20.10;77.40;;;;;;5010989;28;20037;-72
2023/04/15 13:01:27;;;;;;;11.40;4.22;;;20.10;77.50;;;;;;5010052;28;20022;-71
2023/04/15 13:03:52;;;;;;;25.30;4.35;;;20.10;77.70;;;;;;5009970;28;20025;-73
2023/04/15 13:06:18;;;;;;;12.45;3.92;;;20.10;77.80;;;;;;5009908;28;20057;-71
2023/04/15 13:08:43;;;;;;;17.42;3.60;;;20.10;78.00;;;;;;5008872;28;20034;-72
2023/04/15 13:11:09;;;;;;;41.80;5.70;;;20.10;77.90;;;;;;5009764;28;20021;-73
2023/04/15 13:13:35;;;;;;;13.38;3.30;;;20.10;78.30;;;;;;5007403;28;20053;-72
2023/04/15 13:16:00;;;;;;;13.80;4.45;;;20.10;78.50;;;;;;5010226;28;20101;-72
2023/04/15 13:18:26;;;;;;;13.02;3.60;;;20.20;78.30;;;;;;5009836;28;20025;-73
2023/04/15 13:20:53;;;;;;;20.23;3.55;;;20.20;78.20;;;;;;5010651;28;20025;-76
2023/04/15 13:23:18;;;;;;;12.65;3.58;;;20.20;78.30;;;;;;5010111;28;20924;-72
2023/04/15 13:25:44;;;;;;;29.08;5.93;;;20.30;78.20;;;;;;5011577;28;20030;-73
2023/04/15 13:28:11;;;;;;;18.48;3.65;;;20.30;78.30;;;;;;5010885;28;20432;-71
2023/04/15 13:30:37;;;;;;;16.08;3.63;;;20.30;77.90;;;;;;5011553;28;20036;-72
2023/04/15 13:33:04;;;;;;;15.80;3.35;;;20.30;77.90;;;;;;5011323;28;20030;-71
2023/04/15 13:35:31;;;;;;;16.23;3.85;;;20.30;77.80;;;;;;5011294;28;20032;-72
2023/04/15 13:37:57;;;;;;;42.80;4.05;;;20.30;77.80;;;;;;5009540;28;20018;-72
2023/04/15 13:40:22;;;;;;;16.75;3.90;;;20.20;77.80;;;;;;5009951;28;20076;-71
2023/04/15 13:42:48;;;;;;;17.30;3.40;;;20.30;77.70;;;;;;5009388;28;20477;-71
2023/04/15 13:45:13;;;;;;;15.88;3.40;;;20.20;77.70;;;;;;5004790;28;20026;-71
2023/04/15 13:47:39;;;;;;;22.02;4.13;;;20.20;77.70;;;;;;5006353;28;20033;-71
2023/04/15 13:50:06;;;;;;;11.82;3.22;;;20.20;77.90;;;;;;5002898;28;20037;-72
2023/04/15 13:52:31;;;;;;;17.02;3.83;;;20.20;77.90;;;;;;5005985;28;20077;-71
2023/04/15 13:54:57;;;;;;;11.02;2.97;;;20.20;78.00;;;;;;4999255;28;20076;-72
2023/04/15 13:57:22;;;;;;;12.43;3.80;;;20.10;77.80;;;;;;5003466;28;20033;-72
2023/04/15 13:59:48;;;;;;;15.35;3.08;;;20.10;77.90;;;;;;5003524;28;20033;-72
2023/04/15 14:02:13;;;;;;;10.57;3.10;;;20.10;78.00;;;;;;5008966;28;20076;-71
2023/04/15 14:04:39;;;;;;;12.15;3.35;;;20.10;78.10;;;;;;5024355;28;20026;-71
2023/04/15 14:07:05;;;;;;;13.07;3.22;;;20.10;78.10;;;;;;5008475;28;20030;-72
2023/04/15 14:09:30;;;;;;;12.40;3.20;;;20.10;78.20;;;;;;5009175;28;20032;-72
2023/04/15 14:11:57;;;;;;;13.82;3.25;;;20.10;78.30;;;;;;5008733;28;20037;-72
2023/04/15 14:14:23;;;;;;;15.75;3.45;;;20.10;78.30;;;;;;5007518;28;20022;-72
2023/04/15 14:16:48;;;;;;;15.68;3.63;;;20.10;78.30;;;;;;5007547;28;20714;-73
2023/04/15 14:19:14;;;;;;;8.02;2.55;;;20.10;78.30;;;;;;5005028;28;20173;-72
2023/04/15 14:21:40;;;;;;;12.75;3.63;;;20.10;78.40;;;;;;5009124;28;20036;-72
2023/04/15 14:24:05;;;;;;;28.40;3.83;;;20.10;78.40;;;;;;5008822;28;20022;-72
2023/04/15 14:26:31;;;;;;;10.40;3.08;;;20.10;78.50;;;;;;5007574;28;20026;-72
2023/04/15 14:28:56;;;;;;;9.32;2.70;;;20.10;78.60;;;;;;5008826;28;20450;-73
2023/04/15 14:31:22;;;;;;;13.00;2.92;;;20.00;78.70;;;;;;5007360;28;20026;-72
2023/04/15 14:33:47;;;;;;;11.63;2.90;;;20.00;78.80;;;;;;5007545;28;20056;-72
2023/04/15 14:36:13;;;;;;;8.68;2.30;;;20.00;78.90;;;;;;5008263;28;20030;-72
2023/04/15 14:38:39;;;;;;;10.55;2.85;;;20.00;79.00;;;;;;5007972;28;20080;-72
2023/04/15 14:41:06;;;;;;;16.52;3.17;;;20.00;79.10;;;;;;5007082;28;20044;-72
2023/04/15 14:43:32;;;;;;;10.73;2.72;;;20.00;79.20;;;;;;5008468;28;20021;-73
2023/04/15 14:45:57;;;;;;;9.05;2.30;;;20.00;79.40;;;;;;5007724;28;20029;-72
2023/04/15 14:48:23;;;;;;;11.63;2.47;;;20.00;79.50;;;;;;5008437;28;20041;-72
2023/04/15 14:50:48;;;;;;;11.55;2.78;;;20.00;80.40;;;;;;5008427;28;20044;-72
2023/04/15 14:53:14;;;;;;;10.82;2.40;;;20.00;79.70;;;;;;5006820;28;20522;-73
2023/04/15 14:55:40;;;;;;;7.25;2.92;;;20.00;79.80;;;;;;5008202;28;20391;-72
2023/04/15 14:58:08;;;;;;;5.38;2.30;;;20.00;79.80;;;;;;5004051;28;20033;-72
2023/04/15 15:00:34;;;;;;;5.72;2.58;;;20.00;80.00;;;;;;5008354;28;20080;-72
2023/04/15 15:03:00;;;;;;;10.63;2.85;;;20.00;80.00;;;;;;5008170;28;20033;-72
2023/04/15 15:05:26;;;;;;;9.50;2.20;;;20.00;80.10;;;;;;5007596;28;20029;-73
2023/04/15 15:07:51;;;;;;;8.95;2.67;;;20.00;80.20;;;;;;5008290;28;20017;-73
2023/04/15 15:10:17;;;;;;;11.30;2.33;;;20.00;80.30;;;;;;5008078;28;20068;-72
2023/04/15 15:12:42;;;;;;;10.00;2.13;;;20.00;80.50;;;;;;5007942;28;20395;-72
2023/04/15 15:15:08;;;;;;;6.93;2.47;;;20.00;80.50;;;;;;5009897;28;20026;-72
2023/04/15 15:17:35;;;;;;;4.97;2.42;;;19.90;80.60;;;;;;5003769;28;20023;-73
2023/04/15 15:20:01;;;;;;;5.25;2.08;;;19.90;80.70;;;;;;5012465;28;20640;-72
2023/04/15 15:22:27;;;;;;;8.45;2.60;;;19.90;80.80;;;;;;5013933;28;20033;-73
2023/04/15 15:24:53;;;;;;;6.70;2.20;;;19.90;80.90;;;;;;5012125;28;20395;-73
2023/04/15 15:27:18;;;;;;;3.28;2.08;;;19.90;81.00;;;;;;5013297;28;20117;-72
2023/04/15 15:29:44;;;;;;;6.80;2.08;;;20.00;81.20;;;;;;5013495;28;20495;-72
2023/04/15 15:32:10;;;;;;;7.35;2.83;;;19.90;81.20;;;;;;5012230;28;20021;-72
2023/04/15 15:34:35;;;;;;;8.40;2.50;;;19.90;81.30;;;;;;5013692;28;20526;-72
2023/04/15 15:37:01;;;;;;;9.13;2.25;;;20.00;81.40;;;;;;5013194;28;20026;-72
2023/04/15 15:39:26;;;;;;;10.90;2.15;;;19.90;81.50;;;;;;5013438;28;20105;-72
2023/04/15 15:41:52;;;;;;;6.53;2.40;;;19.90;81.40;;;;;;5013367;28;20602;-72
2023/04/15 15:44:17;;;;;;;4.57;2.10;;;19.90;81.50;;;;;;5012283;28;20034;-72
2023/04/15 15:46:43;;;;;;;5.03;2.13;;;19.90;81.60;;;;;;5015152;28;20018;-72
2023/04/15 15:49:10;;;;;;;6.97;2.60;;;19.90;81.60;;;;;;5013272;28;20376;-72
2023/04/15 15:51:35;;;;;;;7.13;1.92;;;19.90;81.60;;;;;;5013114;28;20105;-72
2023/04/15 15:54:01;;;;;;;4.53;2.00;;;19.90;81.80;;;;;;5012028;28;20118;-72
2023/04/15 15:56:27;;;;;;;4.43;1.98;;;19.90;81.80;;;;;;5013039;28;20033;-72
2023/04/15 15:58:52;;;;;;;6.15;2.40;;;19.90;81.80;;;;;;5013067;28;20038;-73
2023/04/15 16:01:17;;;;;;;6.40;2.13;;;19.90;81.90;;;;;;5013001;28;20041;-72
2023/04/15 16:03:43;;;;;;;11.48;2.63;;;19.90;82.00;;;;;;5012889;28;20092;-73
2023/04/15 16:06:09;;;;;;;5.18;1.90;;;19.90;82.00;;;;;;5009798;28;20068;-73
2023/04/15 16:08:34;;;;;;;9.80;2.38;;;19.90;82.10;;;;;;5011705;28;20549;-73
2023/04/15 16:11:00;;;;;;;8.07;2.05;;;19.90;82.00;;;;;;5009163;28;20379;-72
2023/04/15 16:13:26;;;;;;;5.55;2.30;;;20.00;82.20;;;;;;5012711;28;20495;-72
2023/04/15 16:15:51;;;;;;;10.20;1.83;;;19.90;82.10;;;;;;5012887;28;20021;-72
2023/04/15 16:18:17;;;;;;;5.07;1.65;;;19.90;82.20;;;;;;5012673;28;20026;-72
2023/04/15 16:20:43;;;;;;;7.57;2.45;;;19.90;82.00;;;;;;5005515;28;20018;-73
2023/04/15 16:23:14;;;;;;;8.57;1.92;;;19.90;82.20;;;;;;5012476;28;20101;-72
2023/04/15 16:25:43;;;;;;;7.72;2.30;;;19.90;82.20;;;;;;5007802;28;20018;-73
2023/04/15 16:28:10;;;;;;;3.30;2.03;;;20.00;82.30;;;;;;5009827;28;20484;-73
2023/04/15 16:30:36;;;;;;;4.20;2.10;;;19.90;82.20;;;;;;5012597;28;20033;-72
2023/04/15 16:33:03;;;;;;;12.10;2.25;;;20.00;82.90;;;;;;5012632;28;20036;-74
2023/04/15 16:35:29;;;;;;;9.32;3.45;;;19.90;82.20;;;;;;5012675;28;20029;-74
2023/04/15 16:37:54;;;;;;;14.20;3.97;;;19.90;82.10;;;;;;5012198;28;20026;-75
2023/04/15 16:40:20;;;;;;;20.98;4.45;;;20.00;82.10;;;;;;5011598;28;20026;-74
2023/04/15 16:42:45;;;;;;;17.02;5.07;;;19.90;82.00;;;;;;5011668;28;20364;-73
2023/04/15 16:45:11;;;;;;;9.52;4.03;;;19.90;81.80;;;;;;5010936;28;20407;-73
2023/04/15 16:47:36;;;;;;;14.98;4.15;;;19.90;81.80;;;;;;5010351;28;20034;-73
2023/04/15 16:50:02;;;;;;;20.00;3.80;;;19.90;81.60;;;;;;5010687;28;20026;-74
2023/04/15 16:52:28;;;;;;;14.13;3.88;;;19.90;81.50;;;;;;5007925;28;20037;-73
2023/04/15 16:54:54;;;;;;;15.57;3.83;;;19.90;81.50;;;;;;5012311;28;20022;-72
2023/04/15 16:57:20;;;;;;;10.20;4.15;;;19.90;81.40;;;;;;5012236;28;20064;-72
2023/04/15 16:59:45;;;;;;;25.55;4.15;;;19.90;81.30;;;;;;5009453;28;20041;-72
2023/04/15 17:02:14;;;;;;;18.60;4.40;;;19.90;81.20;;;;;;5010695;28;20092;-73
2023/04/15 17:04:40;;;;;;;21.13;5.57;;;19.90;81.10;;;;;;5010835;28;20558;-73
2023/04/15 17:07:07;;;;;;;19.48;4.93;;;19.90;81.10;;;;;;5025687;28;20038;-73
2023/04/15 17:09:33;;;;;;;21.10;4.80;;;19.90;81.10;;;;;;5026463;28;20018;-72
2023/04/15 17:11:59;;;;;;;22.98;6.55;;;19.80;81.00;;;;;;5010059;28;20022;-72
2023/04/15 17:14:27;;;;;;;20.85;6.43;;;19.80;81.10;;;;;;5026232;28;20026;-74
2023/04/15 17:16:53;;;;;;;23.27;5.60;;;19.90;81.20;;;;;;5009881;28;20057;-73
2023/04/15 17:19:18;;;;;;;24.55;5.82;;;19.90;81.20;;;;;;5010244;28;20049;-72
2023/04/15 17:21:44;;;;;;;26.65;6.68;;;19.80;81.20;;;;;;5008637;28;20069;-72
2023/04/15 17:24:10;;;;;;;29.38;6.60;;;19.90;81.20;;;;;;5008952;28;20026;-72
2023/04/15 17:26:35;;;;;;;38.53;8.30;;;19.80;81.20;;;;;;5009899;28;20021;-72
2023/04/15 17:29:01;;;;;;;27.90;7.35;;;19.90;81.30;;;;;;5009235;28;20203;-72
2023/04/15 17:31:28;;;;;;;35.67;9.80;;;19.90;81.40;;;;;;5008536;28;20081;-73
2023/04/15 17:33:54;;;;;;;37.05;9.05;;;19.80;81.40;;;;;;5011641;28;20368;-73
2023/04/15 17:36:20;;;;;;;41.30;9.70;;;19.90;81.60;;;;;;5007269;28;20080;-72
2023/04/15 17:38:46;;;;;;;39.28;9.73;;;19.80;81.60;;;;;;5001645;28;20390;-73
2023/04/15 17:41:11;;;;;;;49.17;10.73;;;19.80;81.60;;;;;;5006668;28;20026;-71
2023/04/15 17:43:37;;;;;;;34.85;9.25;;;19.80;81.60;;;;;;5009363;28;20026;-71
2023/04/15 17:46:03;;;;;;;45.30;11.48;;;19.80;81.70;;;;;;5009539;28;20022;-73
2023/04/15 17:48:28;;;;;;;39.33;10.20;;;19.80;81.60;;;;;;5024795;28;20056;-72
2023/04/15 17:50:54;;;;;;;38.65;10.88;;;19.80;81.70;;;;;;5022553;28;20100;-73
2023/04/15 17:53:19;;;;;;;41.88;10.82;;;19.80;81.70;;;;;;5024775;28;20127;-72
2023/04/15 17:55:45;;;;;;;38.45;10.35;;;19.80;81.70;;;;;;5009465;28;20057;-72
2023/04/15 17:58:10;;;;;;;31.35;9.30;;;19.80;81.60;;;;;;5009866;28;20025;-72
2023/04/15 18:00:36;;;;;;;36.03;10.02;;;19.80;81.60;;;;;;5010074;28;20029;-72
2023/04/15 18:03:02;;;;;;;40.83;10.45;;;19.80;81.70;;;;;;5004977;28;20053;-73
2023/04/15 18:05:28;;;;;;;41.30;10.70;;;19.80;81.70;;;;;;5010447;28;20026;-73
2023/04/15 18:07:54;;;;;;;48.58;10.48;;;19.80;82.60;;;;;;5009527;28;20109;-73
2023/04/15 18:10:20;;;;;;;34.33;10.70;;;19.80;81.70;;;;;;5008034;28;20105;-73
2023/04/15 18:12:46;;;;;;;44.47;12.55;;;19.80;81.70;;;;;;5008116;28;20026;-74
2023/04/15 18:15:13;;;;;;;43.17;9.98;;;19.80;81.70;;;;;;5008347;28;20080;-72
2023/04/15 18:17:39;;;;;;;37.13;11.00;;;19.80;82.10;;;;;;5009429;28;20049;-71
2023/04/15 18:20:05;;;;;;;57.63;11.60;;;19.80;81.70;;;;;;5008262;28;20045;-72
2023/04/15 18:22:31;;;;;;;54.83;10.48;;;19.80;82.10;;;;;;5001617;28;20036;-74
2023/04/15 18:25:02;;;;;;;55.92;10.88;;;19.90;82.00;;;;;;5012946;28;20034;-74
2023/04/15 18:27:29;;;;;;;72.13;11.20;;;20.00;83.50;;;;;;5009511;28;20022;-74
2023/04/15 18:29:54;;;;;;;64.45;10.63;;;20.10;82.60;;;;;;5008325;28;20060;-74
2023/04/15 18:32:20;;;;;;;69.15;10.88;;;20.10;82.10;;;;;;5010542;28;20030;-75
2023/04/15 18:34:46;;;;;;;32.47;9.60;;;20.20;82.80;;;;;;5008771;28;20018;-75
2023/04/15 18:37:11;;;;;;;42.88;9.82;;;20.20;81.90;;;;;;5008792;28;20044;-77
2023/04/15 18:39:37;;;;;;;43.38;10.65;;;20.30;81.90;;;;;;5013450;28;20692;-76
2023/04/15 18:42:02;;;;;;;56.85;10.55;;;20.30;81.70;;;;;;5005981;28;20053;-77
2023/04/15 18:44:28;;;;;;;43.50;9.85;;;20.40;81.90;;;;;;5004610;28;20051;-76
2023/04/15 18:46:53;;;;;;;33.63;9.68;;;20.40;81.90;;;;;;5010022;28;20028;-75
2023/04/15 18:49:19;;;;;;;49.60;9.55;;;20.50;81.60;;;;;;5008248;28;20407;-77
2023/04/15 18:51:45;;;;;;;37.15;8.35;;;20.50;81.60;;;;;;5007278;28;20521;-75
2023/04/15 18:54:11;;;;;;;41.05;9.63;;;20.60;81.10;;;;;;5015214;28;20022;-74
2023/04/15 18:56:37;;;;;;;36.20;8.52;;;20.60;81.20;;;;;;5002782;28;20480;-75
2023/04/15 18:59:02;;;;;;;39.40;9.48;;;20.70;80.90;;;;;;5007443;28;20038;-76
2023/04/15 19:01:28;;;;;;;34.75;9.43;;;20.70;80.90;;;;;;5007359;28;20468;-75
2023/04/15 19:03:53;;;;;;;41.47;10.60;;;20.70;80.90;;;;;;5027668;28;20029;-74
2023/04/15 19:06:19;;;;;;;31.27;8.70;;;20.80;80.50;;;;;;5009852;28;20087;-74
2023/04/15 19:08:44;;;;;;;30.35;8.45;;;20.80;80.10;;;;;;5010432;28;20037;-75
2023/04/15 19:11:10;;;;;;;43.42;9.00;;;20.80;80.70;;;;;;5007323;28;20026;-76
2023/04/15 19:13:36;;;;;;;29.55;7.03;;;20.90;80.50;;;;;;5009400;28;20116;-76
2023/04/15 19:16:02;;;;;;;35.88;8.52;;;20.90;80.50;;;;;;5001754;28;20028;-73
2023/04/15 19:18:27;;;;;;;39.97;9.57;;;20.90;80.50;;;;;;5012485;28;20541;-77
2023/04/15 19:20:54;;;;;;;33.20;7.95;;;21.00;80.40;;;;;;5011491;28;20034;-76
2023/04/15 19:23:22;;;;;;;27.15;7.68;;;21.00;79.30;;;;;;5011952;28;20411;-77
2023/04/15 19:25:48;;;;;;;27.42;7.70;;;20.90;79.00;;;;;;5005609;28;20034;-77
2023/04/15 19:28:14;;;;;;;41.00;8.63;;;20.90;78.60;;;;;;5002697;28;20033;-78
2023/04/15 19:30:40;;;;;;;26.40;7.82;;;20.90;78.40;;;;;;5001831;28;20026;-77